sensor_id;sensor_type;location;lat;lon;timestamp;pressure;altitude;pressure_sealevel;temperature;humidity
49949;BME280;35840;45.982;8.890;2023-04-25T00:01:21;97537.09;;;12.62;44.88
49949;BME280;35840;45.982;8.890;2023-04-25T00:03:48;97543.88;;;12.09;44.78
49949;BME280;35840;45.982;8.890;2023-04-25T00:06:16;97544.69;;;12.42;44.77
49949;BME280;35840;45.982;8.890;2023-04-25T00:08:44;97555.50;;;12.57;45.14
49949;BME280;35840;45.982;8.890;2023-04-25T00:11:11;97544.63;;;12.53;44.68
49949;BME280;35840;45.982;8.890;2023-04-25T00:13:37;97557.50;;;12.32;44.01
49949;BME280;35840;45.982;8.890;2023-04-25T00:16:04;97531.22;;;12.38;43.58
49949;BME280;35840;45.982;8.890;2023-04-25T00:18:31;97545.69;;;12.72;44.73
49949;BME280;35840;45.982;8.890;2023-04-25T00:20:59;97542.59;;;12.78;44.60
49949;BME280;35840;45.982;8.890;2023-04-25T00:23:26;97546.56;;;12.82;45.71
49949;BME280;35840;45.982;8.890;2023-04-25T00:25:53;97550.28;;;12.89;46.48
49949;BME280;35840;45.982;8.890;2023-04-25T00:28:19;97556.09;;;12.61;47.49
49949;BME280;35840;45.982;8.890;2023-04-25T00:30:46;97558.38;;;12.43;48.18
49949;BME280;35840;45.982;8.890;2023-04-25T00:33:13;97551.34;;;12.23;47.68
49949;BME280;35840;45.982;8.890;2023-04-25T00:35:40;97553.03;;;12.02;46.12
49949;BME280;35840;45.982;8.890;2023-04-25T00:38:07;97554.03;;;11.67;47.03
49949;BME280;35840;45.982;8.890;2023-04-25T00:40:34;97551.75;;;11.85;47.63
49949;BME280;35840;45.982;8.890;2023-04-25T00:43:01;97550.31;;;12.03;46.93
49949;BME280;35840;45.982;8.890;2023-04-25T00:45:29;97547.19;;;12.00;46.58
49949;BME280;35840;45.982;8.890;2023-04-25T00:47:56;97545.28;;;12.02;46.95
49949;BME280;35840;45.982;8.890;2023-04-25T00:50:24;97547.66;;;12.26;47.71
49949;BME280;35840;45.982;8.890;2023-04-25T00:52:51;97546.38;;;11.99;47.93
49949;BME280;35840;45.982;8.890;2023-04-25T00:55:19;97536.47;;;11.61;50.14
49949;BME280;35840;45.982;8.890;2023-04-25T00:57:46;97546.66;;;11.40;50.50
49949;BME280;35840;45.982;8.890;2023-04-25T01:00:14;97540.25;;;11.34;50.02
49949;BME280;35840;45.982;8.890;2023-04-25T01:02:43;97545.72;;;11.63;48.83
49949;BME280;35840;45.982;8.890;2023-04-25T01:05:11;97544.53;;;11.79;49.97
49949;BME280;35840;45.982;8.890;2023-04-25T01:07:38;97549.09;;;11.86;50.68
49949;BME280;35840;45.982;8.890;2023-04-25T01:10:06;97537.38;;;11.82;50.89
49949;BME280;35840;45.982;8.890;2023-04-25T01:12:33;97543.34;;;11.94;51.33
49949;BME280;35840;45.982;8.890;2023-04-25T01:15:00;97535.13;;;11.89;51.09
49949;BME280;35840;45.982;8.890;2023-04-25T01:17:28;97545.06;;;12.05;51.01
49949;BME280;35840;45.982;8.890;2023-04-25T01:19:55;97543.41;;;12.15;51.75
49949;BME280;35840;45.982;8.890;2023-04-25T01:22:22;97540.44;;;12.20;47.66
49949;BME280;35840;45.982;8.890;2023-04-25T01:24:50;97539.47;;;11.88;47.44
49949;BME280;35840;45.982;8.890;2023-04-25T01:27:17;97544.63;;;12.00;48.03
49949;BME280;35840;45.982;8.890;2023-04-25T01:29:45;97549.09;;;11.86;48.75
49949;BME280;35840;45.982;8.890;2023-04-25T01:32:13;97552.56;;;12.08;48.87
49949;BME280;35840;45.982;8.890;2023-04-25T01:34:40;97546.84;;;12.26;48.90
49949;BME280;35840;45.982;8.890;2023-04-25T01:37:07;97553.16;;;12.33;49.69
49949;BME280;35840;45.982;8.890;2023-04-25T01:39:33;97555.59;;;12.34;49.25
49949;BME280;35840;45.982;8.890;2023-04-25T01:42:00;97551.59;;;12.42;49.86
49949;BME280;35840;45.982;8.890;2023-04-25T01:44:29;97550.41;;;12.46;49.88
49949;BME280;35840;45.982;8.890;2023-04-25T01:46:56;97553.69;;;12.48;49.30
49949;BME280;35840;45.982;8.890;2023-04-25T01:49:23;97547.41;;;12.40;50.18
49949;BME280;35840;45.982;8.890;2023-04-25T01:51:50;97536.13;;;12.42;49.91
49949;BME280;35840;45.982;8.890;2023-04-25T01:54:18;97537.03;;;12.52;49.63
49949;BME280;35840;45.982;8.890;2023-04-25T01:56:50;97535.56;;;12.59;49.37
49949;BME280;35840;45.982;8.890;2023-04-25T01:59:19;97533.81;;;12.60;49.83
49949;BME280;35840;45.982;8.890;2023-04-25T02:02:15;97525.13;;;12.61;48.28
49949;BME280;35840;45.982;8.890;2023-04-25T02:04:43;97520.59;;;12.53;49.84
49949;BME280;35840;45.982;8.890;2023-04-25T02:07:11;97521.44;;;12.53;48.64
49949;BME280;35840;45.982;8.890;2023-04-25T02:09:49;97529.16;;;12.53;48.96
49949;BME280;35840;45.982;8.890;2023-04-25T02:12:17;97528.91;;;12.56;49.03
49949;BME280;35840;45.982;8.890;2023-04-25T02:14:56;97539.34;;;12.55;49.10
49949;BME280;35840;45.982;8.890;2023-04-25T02:17:34;97540.59;;;12.61;48.86
49949;BME280;35840;45.982;8.890;2023-04-25T02:20:01;97539.28;;;12.66;50.72
49949;BME280;35840;45.982;8.890;2023-04-25T02:22:27;97538.22;;;12.69;50.34
49949;BME280;35840;45.982;8.890;2023-04-25T02:24:56;97527.47;;;12.64;50.67
49949;BME280;35840;45.982;8.890;2023-04-25T02:27:23;97531.56;;;12.66;50.38
49949;BME280;35840;45.982;8.890;2023-04-25T02:29:50;97531.41;;;12.68;49.82
49949;BME280;35840;45.982;8.890;2023-04-25T02:32:17;97536.00;;;12.64;49.90
49949;BME280;35840;45.982;8.890;2023-04-25T02:34:43;97527.53;;;12.52;49.76
49949;BME280;35840;45.982;8.890;2023-04-25T02:37:10;97535.50;;;12.49;50.22
49949;BME280;35840;45.982;8.890;2023-04-25T02:39:37;97534.13;;;12.45;50.72
49949;BME280;35840;45.982;8.890;2023-04-25T02:42:04;97535.56;;;12.38;50.08
49949;BME280;35840;45.982;8.890;2023-04-25T02:44:31;97533.53;;;12.42;51.25
49949;BME280;35840;45.982;8.890;2023-04-25T02:46:57;97539.16;;;12.47;51.42
49949;BME280;35840;45.982;8.890;2023-04-25T02:49:24;97537.25;;;12.49;52.55
49949;BME280;35840;45.982;8.890;2023-04-25T02:51:51;97539.78;;;12.39;52.24
49949;BME280;35840;45.982;8.890;2023-04-25T02:54:18;97533.00;;;12.38;51.98
49949;BME280;35840;45.982;8.890;2023-04-25T02:56:47;97526.31;;;12.35;52.47
49949;BME280;35840;45.982;8.890;2023-04-25T02:59:19;97524.13;;;12.31;51.91
49949;BME280;35840;45.982;8.890;2023-04-25T03:01:46;97523.41;;;12.29;52.02
49949;BME280;35840;45.982;8.890;2023-04-25T03:04:12;97516.53;;;12.29;51.54
49949;BME280;35840;45.982;8.890;2023-04-25T03:06:39;97518.97;;;12.31;51.49
49949;BME280;35840;45.982;8.890;2023-04-25T03:09:06;97511.38;;;12.29;53.15
49949;BME280;35840;45.982;8.890;2023-04-25T03:11:32;97516.19;;;12.22;53.40
49949;BME280;35840;45.982;8.890;2023-04-25T03:14:00;97524.53;;;12.15;52.94
49949;BME280;35840;45.982;8.890;2023-04-25T03:16:27;97513.31;;;12.04;53.27
49949;BME280;35840;45.982;8.890;2023-04-25T03:18:54;97514.25;;;11.71;52.72
49949;BME280;35840;45.982;8.890;2023-04-25T03:21:21;97516.19;;;11.79;53.72
49949;BME280;35840;45.982;8.890;2023-04-25T03:23:47;97528.84;;;11.70;53.36
49949;BME280;35840;45.982;8.890;2023-04-25T03:26:15;97522.19;;;11.68;53.49
49949;BME280;35840;45.982;8.890;2023-04-25T03:28:42;97514.34;;;11.69;54.11
49949;BME280;35840;45.982;8.890;2023-04-25T03:31:12;97513.41;;;11.70;54.37
49949;BME280;35840;45.982;8.890;2023-04-25T03:33:39;97516.09;;;11.69;54.78
49949;BME280;35840;45.982;8.890;2023-04-25T03:36:06;97511.88;;;11.68;53.93
49949;BME280;35840;45.982;8.890;2023-04-25T03:38:32;97520.81;;;11.64;54.22
49949;BME280;35840;45.982;8.890;2023-04-25T03:41:01;97520.91;;;11.62;54.40
49949;BME280;35840;45.982;8.890;2023-04-25T03:43:41;97526.28;;;11.59;55.28
49949;BME280;35840;45.982;8.890;2023-04-25T03:46:11;97530.41;;;11.50;55.06
49949;BME280;35840;45.982;8.890;2023-04-25T03:48:39;97521.41;;;11.45;54.54
49949;BME280;35840;45.982;8.890;2023-04-25T03:51:08;97526.31;;;11.48;55.42
49949;BME280;35840;45.982;8.890;2023-04-25T03:53:38;97516.63;;;11.40;54.63
49949;BME280;35840;45.982;8.890;2023-04-25T03:56:25;97529.84;;;11.35;55.38
49949;BME280;35840;45.982;8.890;2023-04-25T03:58:59;97515.47;;;11.33;55.59
49949;BME280;35840;45.982;8.890;2023-04-25T04:01:27;97520.84;;;11.30;54.84
49949;BME280;35840;45.982;8.890;2023-04-25T04:03:54;97511.50;;;11.17;54.82
49949;BME280;35840;45.982;8.890;2023-04-25T04:06:23;97515.34;;;11.12;54.99
49949;BME280;35840;45.982;8.890;2023-04-25T04:08:58;97519.09;;;11.08;55.30
49949;BME280;35840;45.982;8.890;2023-04-25T04:11:25;97525.03;;;11.08;55.92
49949;BME280;35840;45.982;8.890;2023-04-25T04:13:52;97518.38;;;10.94;56.46
49949;BME280;35840;45.982;8.890;2023-04-25T04:16:19;97524.59;;;10.92;56.50
49949;BME280;35840;45.982;8.890;2023-04-25T04:18:46;97521.19;;;10.91;56.10
49949;BME280;35840;45.982;8.890;2023-04-25T04:21:13;97520.72;;;10.75;55.89
49949;BME280;35840;45.982;8.890;2023-04-25T04:23:41;97518.72;;;10.78;56.08
49949;BME280;35840;45.982;8.890;2023-04-25T04:26:09;97518.72;;;10.78;56.00
49949;BME280;35840;45.982;8.890;2023-04-25T04:29:05;97529.34;;;10.74;56.68
49949;BME280;35840;45.982;8.890;2023-04-25T04:31:54;97521.16;;;10.68;57.05
49949;BME280;35840;45.982;8.890;2023-04-25T04:34:23;97530.63;;;10.68;57.12
49949;BME280;35840;45.982;8.890;2023-04-25T04:36:52;97544.63;;;10.64;56.57
49949;BME280;35840;45.982;8.890;2023-04-25T04:39:19;97546.28;;;10.65;57.22
49949;BME280;35840;45.982;8.890;2023-04-25T04:41:57;97537.16;;;10.61;56.92
49949;BME280;35840;45.982;8.890;2023-04-25T04:44:38;97540.06;;;10.56;56.69
49949;BME280;35840;45.982;8.890;2023-04-25T04:47:24;97552.56;;;10.61;57.18
49949;BME280;35840;45.982;8.890;2023-04-25T04:50:10;97552.81;;;10.58;56.78
49949;BME280;35840;45.982;8.890;2023-04-25T04:52:59;97546.25;;;10.54;56.71
49949;BME280;35840;45.982;8.890;2023-04-25T04:55:45;97544.84;;;10.49;56.83
49949;BME280;35840;45.982;8.890;2023-04-25T04:58:24;97544.47;;;10.54;57.58
49949;BME280;35840;45.982;8.890;2023-04-25T05:01:01;97535.25;;;10.51;57.75
49949;BME280;35840;45.982;8.890;2023-04-25T05:03:46;97543.94;;;10.62;58.50
49949;BME280;35840;45.982;8.890;2023-04-25T05:06:32;97539.88;;;10.71;58.04
49949;BME280;35840;45.982;8.890;2023-04-25T05:09:38;97543.72;;;10.76;57.92
49949;BME280;35840;45.982;8.890;2023-04-25T05:12:05;97551.91;;;10.81;58.14
49949;BME280;35840;45.982;8.890;2023-04-25T05:14:54;97553.44;;;10.84;57.57
49949;BME280;35840;45.982;8.890;2023-04-25T05:17:40;97550.75;;;10.85;58.17
49949;BME280;35840;45.982;8.890;2023-04-25T05:20:25;97549.00;;;10.86;57.43
49949;BME280;35840;45.982;8.890;2023-04-25T05:23:01;97547.03;;;11.01;57.59
49949;BME280;35840;45.982;8.890;2023-04-25T05:25:46;97555.91;;;11.08;57.61
49949;BME280;35840;45.982;8.890;2023-04-25T05:28:31;97554.28;;;11.07;57.64
49949;BME280;35840;45.982;8.890;2023-04-25T05:31:10;97556.41;;;11.13;58.17
49949;BME280;35840;45.982;8.890;2023-04-25T05:33:45;97556.63;;;11.22;59.49
49949;BME280;35840;45.982;8.890;2023-04-25T05:36:12;97557.09;;;11.27;58.93
49949;BME280;35840;45.982;8.890;2023-04-25T05:38:39;97558.50;;;11.19;57.04
49949;BME280;35840;45.982;8.890;2023-04-25T05:41:21;97561.06;;;11.31;56.94
49949;BME280;35840;45.982;8.890;2023-04-25T05:43:54;97556.28;;;11.37;58.80
49949;BME280;35840;45.982;8.890;2023-04-25T05:46:48;97561.06;;;11.42;58.39
49949;BME280;35840;45.982;8.890;2023-04-25T05:49:42;97553.56;;;11.50;57.11
49949;BME280;35840;45.982;8.890;2023-04-25T05:52:25;97565.41;;;11.53;57.94
49949;BME280;35840;45.982;8.890;2023-04-25T05:55:06;97571.22;;;11.55;57.93
49949;BME280;35840;45.982;8.890;2023-04-25T05:57:33;97562.94;;;11.63;57.81
49949;BME280;35840;45.982;8.890;2023-04-25T06:00:01;97562.44;;;11.69;57.79
49949;BME280;35840;45.982;8.890;2023-04-25T06:02:42;97559.63;;;11.72;57.38
49949;BME280;35840;45.982;8.890;2023-04-25T06:05:12;97553.88;;;11.80;57.82
49949;BME280;35840;45.982;8.890;2023-04-25T06:07:39;97554.00;;;11.89;57.82
49949;BME280;35840;45.982;8.890;2023-04-25T06:10:06;97558.88;;;11.93;57.77
49949;BME280;35840;45.982;8.890;2023-04-25T06:12:33;97558.56;;;11.97;58.08
49949;BME280;35840;45.982;8.890;2023-04-25T06:15:02;97548.72;;;12.02;58.16
49949;BME280;35840;45.982;8.890;2023-04-25T06:17:38;97541.53;;;12.06;58.34
49949;BME280;35840;45.982;8.890;2023-04-25T06:20:06;97538.72;;;12.09;57.55
49949;BME280;35840;45.982;8.890;2023-04-25T06:22:33;97540.81;;;12.15;57.75
49949;BME280;35840;45.982;8.890;2023-04-25T06:25:00;97540.91;;;12.25;55.25
49949;BME280;35840;45.982;8.890;2023-04-25T06:27:28;97543.47;;;12.25;55.39
49949;BME280;35840;45.982;8.890;2023-04-25T06:29:55;97542.16;;;12.31;56.95
49949;BME280;35840;45.982;8.890;2023-04-25T06:32:22;97549.25;;;12.38;56.27
49949;BME280;35840;45.982;8.890;2023-04-25T06:34:48;97548.94;;;12.32;52.56
49949;BME280;35840;45.982;8.890;2023-04-25T06:37:15;97547.19;;;12.32;52.17
49949;BME280;35840;45.982;8.890;2023-04-25T06:39:42;97538.19;;;12.27;53.05
49949;BME280;35840;45.982;8.890;2023-04-25T06:42:09;97551.38;;;12.45;54.89
49949;BME280;35840;45.982;8.890;2023-04-25T06:44:51;97550.59;;;12.54;53.85
49949;BME280;35840;45.982;8.890;2023-04-25T06:47:19;97536.97;;;12.42;54.35
49949;BME280;35840;45.982;8.890;2023-04-25T06:49:47;97552.72;;;12.49;53.26
49949;BME280;35840;45.982;8.890;2023-04-25T06:52:14;97542.41;;;12.49;53.70
49949;BME280;35840;45.982;8.890;2023-04-25T06:54:41;97545.56;;;12.52;55.05
49949;BME280;35840;45.982;8.890;2023-04-25T06:57:27;97538.56;;;12.43;53.60
49949;BME280;35840;45.982;8.890;2023-04-25T06:59:57;97544.19;;;12.48;54.16
49949;BME280;35840;45.982;8.890;2023-04-25T07:02:25;97536.78;;;12.55;53.61
49949;BME280;35840;45.982;8.890;2023-04-25T07:04:53;97544.38;;;12.56;54.81
49949;BME280;35840;45.982;8.890;2023-04-25T07:07:22;97545.06;;;12.58;54.08
49949;BME280;35840;45.982;8.890;2023-04-25T07:09:54;97532.69;;;12.52;54.65
49949;BME280;35840;45.982;8.890;2023-04-25T07:12:21;97556.50;;;12.66;53.49
49949;BME280;35840;45.982;8.890;2023-04-25T07:14:48;97551.78;;;12.71;51.99
49949;BME280;35840;45.982;8.890;2023-04-25T07:17:15;97551.47;;;12.64;50.98
49949;BME280;35840;45.982;8.890;2023-04-25T07:19:42;97552.13;;;12.56;51.09
49949;BME280;35840;45.982;8.890;2023-04-25T07:22:10;97545.78;;;12.61;51.93
49949;BME280;35840;45.982;8.890;2023-04-25T07:24:39;97543.13;;;12.72;51.50
49949;BME280;35840;45.982;8.890;2023-04-25T07:27:08;97543.06;;;12.83;51.85
49949;BME280;35840;45.982;8.890;2023-04-25T07:29:44;97534.13;;;12.87;52.16
49949;BME280;35840;45.982;8.890;2023-04-25T07:32:11;97539.69;;;12.92;50.92
49949;BME280;35840;45.982;8.890;2023-04-25T07:34:41;97530.75;;;12.97;52.64
49949;BME280;35840;45.982;8.890;2023-04-25T07:37:08;97524.25;;;13.02;50.63
49949;BME280;35840;45.982;8.890;2023-04-25T07:39:45;97520.78;;;13.13;49.49
49949;BME280;35840;45.982;8.890;2023-04-25T07:42:13;97509.94;;;13.19;50.53
49949;BME280;35840;45.982;8.890;2023-04-25T07:44:42;97515.94;;;13.30;48.10
49949;BME280;35840;45.982;8.890;2023-04-25T07:47:11;97518.75;;;13.48;50.81
49949;BME280;35840;45.982;8.890;2023-04-25T07:49:38;97523.00;;;13.58;51.47
49949;BME280;35840;45.982;8.890;2023-04-25T07:52:06;97520.41;;;13.58;48.67
49949;BME280;35840;45.982;8.890;2023-04-25T07:54:34;97515.53;;;13.55;49.06
49949;BME280;35840;45.982;8.890;2023-04-25T07:57:09;97520.81;;;13.64;50.03
49949;BME280;35840;45.982;8.890;2023-04-25T07:59:37;97524.13;;;13.75;48.35
49949;BME280;35840;45.982;8.890;2023-04-25T08:02:05;97524.41;;;13.82;47.56
49949;BME280;35840;45.982;8.890;2023-04-25T08:04:32;97528.09;;;13.89;45.86
49949;BME280;35840;45.982;8.890;2023-04-25T08:07:02;97517.06;;;13.87;43.62
49949;BME280;35840;45.982;8.890;2023-04-25T08:09:35;97519.66;;;13.97;46.33
49949;BME280;35840;45.982;8.890;2023-04-25T08:12:07;97507.44;;;13.99;47.37
49949;BME280;35840;45.982;8.890;2023-04-25T08:14:35;97511.91;;;14.07;48.06
49949;BME280;35840;45.982;8.890;2023-04-25T08:17:04;97503.59;;;14.13;46.90
49949;BME280;35840;45.982;8.890;2023-04-25T08:19:34;97509.19;;;14.18;47.57
49949;BME280;35840;45.982;8.890;2023-04-25T08:22:01;97503.59;;;14.33;49.54
49949;BME280;35840;45.982;8.890;2023-04-25T08:24:38;97503.06;;;14.39;48.70
49949;BME280;35840;45.982;8.890;2023-04-25T08:27:07;97510.38;;;14.53;47.40
49949;BME280;35840;45.982;8.890;2023-04-25T08:29:35;97503.84;;;14.69;50.18
49949;BME280;35840;45.982;8.890;2023-04-25T08:32:02;97510.47;;;14.81;47.75
49949;BME280;35840;45.982;8.890;2023-04-25T08:34:29;97510.88;;;14.86;48.25
49949;BME280;35840;45.982;8.890;2023-04-25T08:37:01;97521.50;;;14.93;48.42
49949;BME280;35840;45.982;8.890;2023-04-25T08:39:43;97515.75;;;14.99;48.95
49949;BME280;35840;45.982;8.890;2023-04-25T08:42:36;97520.19;;;15.07;50.41
49949;BME280;35840;45.982;8.890;2023-04-25T08:45:04;97509.81;;;15.17;47.92
49949;BME280;35840;45.982;8.890;2023-04-25T08:47:38;97507.31;;;15.25;48.13
49949;BME280;35840;45.982;8.890;2023-04-25T08:50:06;97500.31;;;15.35;46.57
49949;BME280;35840;45.982;8.890;2023-04-25T08:52:43;97501.59;;;15.49;49.71
49949;BME280;35840;45.982;8.890;2023-04-25T08:55:12;97496.34;;;15.41;46.61
49949;BME280;35840;45.982;8.890;2023-04-25T08:57:43;97512.59;;;15.33;46.75
49949;BME280;35840;45.982;8.890;2023-04-25T09:00:12;97509.63;;;15.28;47.37
49949;BME280;35840;45.982;8.890;2023-04-25T09:02:42;97513.81;;;15.39;49.24
49949;BME280;35840;45.982;8.890;2023-04-25T09:05:13;97509.81;;;15.44;47.79
49949;BME280;35840;45.982;8.890;2023-04-25T09:07:40;97501.91;;;15.46;46.68
49949;BME280;35840;45.982;8.890;2023-04-25T09:10:08;97496.13;;;15.52;45.63
49949;BME280;35840;45.982;8.890;2023-04-25T09:12:36;97502.38;;;15.59;47.32
49949;BME280;35840;45.982;8.890;2023-04-25T09:17:56;97496.63;;;15.65;48.24
49949;BME280;35840;45.982;8.890;2023-04-25T09:20:27;97502.00;;;15.82;45.06
49949;BME280;35840;45.982;8.890;2023-04-25T09:23:04;97500.72;;;15.86;47.67
49949;BME280;35840;45.982;8.890;2023-04-25T09:25:35;97500.00;;;15.94;46.56
49949;BME280;35840;45.982;8.890;2023-04-25T09:28:06;97501.41;;;16.06;46.78
49949;BME280;35840;45.982;8.890;2023-04-25T09:30:35;97506.38;;;16.17;47.19
49949;BME280;35840;45.982;8.890;2023-04-25T09:33:11;97503.63;;;16.19;46.36
49949;BME280;35840;45.982;8.890;2023-04-25T09:35:44;97503.09;;;16.15;48.68
49949;BME280;35840;45.982;8.890;2023-04-25T09:38:23;97495.63;;;16.12;45.36
49949;BME280;35840;45.982;8.890;2023-04-25T09:40:59;97492.50;;;16.27;44.95
49949;BME280;35840;45.982;8.890;2023-04-25T09:43:49;97491.75;;;16.34;48.65
49949;BME280;35840;45.982;8.890;2023-04-25T09:46:16;97506.09;;;16.47;46.26
49949;BME280;35840;45.982;8.890;2023-04-25T09:48:51;97512.75;;;16.49;44.84
49949;BME280;35840;45.982;8.890;2023-04-25T09:51:36;97507.31;;;16.61;44.07
49949;BME280;35840;45.982;8.890;2023-04-25T09:54:05;97513.63;;;16.58;42.95
49949;BME280;35840;45.982;8.890;2023-04-25T09:56:48;97511.97;;;16.49;41.65
49949;BME280;35840;45.982;8.890;2023-04-25T09:59:15;97514.63;;;16.39;42.02
49949;BME280;35840;45.982;8.890;2023-04-25T10:01:43;97513.81;;;16.39;41.30
49949;BME280;35840;45.982;8.890;2023-04-25T10:04:28;97513.84;;;16.21;39.90
49949;BME280;35840;45.982;8.890;2023-04-25T10:07:16;97502.88;;;16.09;40.76
49949;BME280;35840;45.982;8.890;2023-04-25T10:09:47;97507.41;;;16.07;39.80
49949;BME280;35840;45.982;8.890;2023-04-25T10:12:15;97504.28;;;16.21;43.30
49949;BME280;35840;45.982;8.890;2023-04-25T10:14:43;97508.44;;;16.32;39.93
49949;BME280;35840;45.982;8.890;2023-04-25T10:17:10;97500.94;;;16.29;39.27
49949;BME280;35840;45.982;8.890;2023-04-25T10:19:37;97498.19;;;16.30;41.12
49949;BME280;35840;45.982;8.890;2023-04-25T10:22:17;97500.19;;;16.37;39.23
49949;BME280;35840;45.982;8.890;2023-04-25T10:24:45;97510.25;;;16.40;40.22
49949;BME280;35840;45.982;8.890;2023-04-25T10:27:13;97506.09;;;16.47;38.71
49949;BME280;35840;45.982;8.890;2023-04-25T10:29:40;97515.50;;;16.48;39.66
49949;BME280;35840;45.982;8.890;2023-04-25T10:32:09;97517.06;;;16.59;40.54
49949;BME280;35840;45.982;8.890;2023-04-25T10:34:41;97517.84;;;16.59;40.12
49949;BME280;35840;45.982;8.890;2023-04-25T10:37:09;97522.75;;;16.62;40.05
49949;BME280;35840;45.982;8.890;2023-04-25T10:39:39;97511.41;;;16.63;41.17
49949;BME280;35840;45.982;8.890;2023-04-25T10:42:07;97504.00;;;16.68;41.92
49949;BME280;35840;45.982;8.890;2023-04-25T10:44:36;97519.81;;;16.57;41.53
49949;BME280;35840;45.982;8.890;2023-04-25T10:47:06;97512.31;;;16.54;41.39
49949;BME280;35840;45.982;8.890;2023-04-25T10:49:41;97514.63;;;16.57;39.97
49949;BME280;35840;45.982;8.890;2023-04-25T10:52:24;97514.16;;;16.62;40.32
49949;BME280;35840;45.982;8.890;2023-04-25T10:54:53;97516.91;;;16.60;40.02
49949;BME280;35840;45.982;8.890;2023-04-25T10:57:40;97525.88;;;16.66;40.61
49949;BME280;35840;45.982;8.890;2023-04-25T11:02:51;97525.94;;;16.56;39.61
49949;BME280;35840;45.982;8.890;2023-04-25T11:05:35;97528.34;;;16.49;36.11
49949;BME280;35840;45.982;8.890;2023-04-25T11:08:35;97525.25;;;16.28;34.30
49949;BME280;35840;45.982;8.890;2023-04-25T11:11:05;97537.31;;;16.01;35.10
49949;BME280;35840;45.982;8.890;2023-04-25T11:13:31;97538.66;;;15.77;35.47
49949;BME280;35840;45.982;8.890;2023-04-25T11:15:58;97538.72;;;15.67;35.97
49949;BME280;35840;45.982;8.890;2023-04-25T11:18:43;97563.56;;;15.42;37.88
49949;BME280;35840;45.982;8.890;2023-04-25T11:21:11;97557.81;;;15.01;40.99
49949;BME280;35840;45.982;8.890;2023-04-25T11:23:38;97555.84;;;14.66;44.08
49949;BME280;35840;45.982;8.890;2023-04-25T11:26:05;97560.78;;;14.69;42.92
49949;BME280;35840;45.982;8.890;2023-04-25T11:28:31;97551.75;;;14.73;41.29
49949;BME280;35840;45.982;8.890;2023-04-25T11:30:58;97556.00;;;14.64;40.79
49949;BME280;35840;45.982;8.890;2023-04-25T11:33:25;97553.13;;;14.57;41.94
49949;BME280;35840;45.982;8.890;2023-04-25T11:35:54;97548.47;;;14.61;40.44
49949;BME280;35840;45.982;8.890;2023-04-25T11:38:24;97549.28;;;14.81;40.82
49949;BME280;35840;45.982;8.890;2023-04-25T11:40:54;97559.09;;;14.87;39.78
49949;BME280;35840;45.982;8.890;2023-04-25T11:43:22;97558.66;;;15.02;41.36
49949;BME280;35840;45.982;8.890;2023-04-25T11:45:49;97556.59;;;15.05;39.56
49949;BME280;35840;45.982;8.890;2023-04-25T11:48:20;97550.25;;;15.27;39.80
49949;BME280;35840;45.982;8.890;2023-04-25T11:50:51;97549.13;;;15.40;39.51
49949;BME280;35840;45.982;8.890;2023-04-25T11:53:18;97532.28;;;15.26;38.58
49949;BME280;35840;45.982;8.890;2023-04-25T11:55:45;97545.84;;;15.38;38.19
49949;BME280;35840;45.982;8.890;2023-04-25T11:58:12;97546.84;;;15.55;39.79
49949;BME280;35840;45.982;8.890;2023-04-25T12:00:41;97540.91;;;15.72;38.31
49949;BME280;35840;45.982;8.890;2023-04-25T12:03:17;97529.53;;;15.83;37.56
49949;BME280;35840;45.982;8.890;2023-04-25T12:05:45;97520.06;;;15.92;36.18
49949;BME280;35840;45.982;8.890;2023-04-25T12:08:13;97515.03;;;16.08;37.53
49949;BME280;35840;45.982;8.890;2023-04-25T12:10:43;97524.38;;;16.19;35.76
49949;BME280;35840;45.982;8.890;2023-04-25T12:13:24;97518.44;;;16.27;35.84
49949;BME280;35840;45.982;8.890;2023-04-25T12:15:54;97498.84;;;16.32;35.17
49949;BME280;35840;45.982;8.890;2023-04-25T12:18:23;97511.81;;;16.50;33.90
49949;BME280;35840;45.982;8.890;2023-04-25T12:20:52;97510.88;;;16.60;33.53
49949;BME280;35840;45.982;8.890;2023-04-25T12:23:25;97509.97;;;16.69;33.98
49949;BME280;35840;45.982;8.890;2023-04-25T12:25:53;97498.47;;;16.72;33.33
49949;BME280;35840;45.982;8.890;2023-04-25T12:28:22;97498.53;;;16.80;32.84
49949;BME280;35840;45.982;8.890;2023-04-25T12:31:00;97488.50;;;16.85;33.48
49949;BME280;35840;45.982;8.890;2023-04-25T12:33:33;97495.47;;;16.84;31.89
49949;BME280;35840;45.982;8.890;2023-04-25T12:36:01;97489.13;;;16.79;31.63
49949;BME280;35840;45.982;8.890;2023-04-25T12:38:38;97483.91;;;16.79;32.52
49949;BME280;35840;45.982;8.890;2023-04-25T12:41:06;97480.66;;;16.77;31.56
49949;BME280;35840;45.982;8.890;2023-04-25T12:43:34;97482.66;;;16.83;31.49
49949;BME280;35840;45.982;8.890;2023-04-25T12:46:01;97478.94;;;16.85;30.65
49949;BME280;35840;45.982;8.890;2023-04-25T12:48:28;97482.91;;;16.98;31.12
49949;BME280;35840;45.982;8.890;2023-04-25T12:50:54;97492.06;;;17.10;30.31
49949;BME280;35840;45.982;8.890;2023-04-25T12:53:22;97484.31;;;17.18;30.10
49949;BME280;35840;45.982;8.890;2023-04-25T12:55:50;97476.50;;;17.18;29.88
49949;BME280;35840;45.982;8.890;2023-04-25T12:58:18;97471.47;;;17.17;31.38
49949;BME280;35840;45.982;8.890;2023-04-25T13:00:45;97468.88;;;17.25;30.74
49949;BME280;35840;45.982;8.890;2023-04-25T13:03:12;97462.88;;;17.25;30.16
49949;BME280;35840;45.982;8.890;2023-04-25T13:05:40;97458.69;;;17.32;30.57
49949;BME280;35840;45.982;8.890;2023-04-25T13:08:06;97467.63;;;17.37;31.62
49949;BME280;35840;45.982;8.890;2023-04-25T13:10:33;97465.56;;;17.49;29.93
49949;BME280;35840;45.982;8.890;2023-04-25T13:13:00;97470.25;;;17.46;29.72
49949;BME280;35840;45.982;8.890;2023-04-25T13:15:28;97461.66;;;17.53;30.15
49949;BME280;35840;45.982;8.890;2023-04-25T13:17:55;97465.09;;;17.70;29.88
49949;BME280;35840;45.982;8.890;2023-04-25T13:20:22;97454.56;;;17.80;29.52
49949;BME280;35840;45.982;8.890;2023-04-25T13:22:49;97470.16;;;17.88;29.91
49949;BME280;35840;45.982;8.890;2023-04-25T13:25:16;97466.97;;;17.95;28.81